sensor_id;sensor_type;location;lat;lon;timestamp;pressure;altitude;pressure_sealevel;temperature;humidity
54262;BME280;40174;52.364;6.452;2023-05-08T00:01:05;101888.78;;;13.70;nan
54262;BME280;40174;52.364;6.452;2023-05-08T00:03:32;101898.06;;;13.76;nan
54262;BME280;40174;52.364;6.452;2023-05-08T00:05:58;101899.50;;;13.68;nan
54262;BME280;40174;52.364;6.452;2023-05-08T00:08:25;101895.88;;;13.69;nan
54262;BME280;40174;52.364;6.452;2023-05-08T00:10:52;101886.44;;;13.65;nan
54262;BME280;40174;52.364;6.452;2023-05-08T00:13:19;101880.44;;;13.63;nan
54262;BME280;40174;52.364;6.452;2023-05-08T00:15:47;101881.38;;;13.62;nan
54262;BME280;40174;52.364;6.452;2023-05-08T00:18:13;101888.97;;;13.56;nan
54262;BME280;40174;52.364;6.452;2023-05-08T00:20:40;101888.22;;;13.54;nan
54262;BME280;40174;52.364;6.452;2023-05-08T00:23:07;101893.06;;;13.48;nan
54262;BME280;40174;52.364;6.452;2023-05-08T00:25:34;101894.25;;;13.44;nan
54262;BME280;40174;52.364;6.452;2023-05-08T00:28:00;101897.63;;;13.46;nan
54262;BME280;40174;52.364;6.452;2023-05-08T00:30:27;101893.13;;;13.36;nan
54262;BME280;40174;52.364;6.452;2023-05-08T00:32:55;101894.34;;;13.43;nan
54262;BME280;40174;52.364;6.452;2023-05-08T00:35:22;101890.00;;;13.42;nan
54262;BME280;40174;52.364;6.452;2023-05-08T00:37:48;101898.31;;;13.37;nan
54262;BME280;40174;52.364;6.452;2023-05-08T00:40:15;101892.91;;;13.39;nan
54262;BME280;40174;52.364;6.452;2023-05-08T00:42:41;101894.22;;;13.33;nan
54262;BME280;40174;52.364;6.452;2023-05-08T00:45:08;101893.47;;;13.31;nan
54262;BME280;40174;52.364;6.452;2023-05-08T00:47:36;101890.28;;;13.26;nan
54262;BME280;40174;52.364;6.452;2023-05-08T00:50:05;101882.44;;;13.24;nan
54262;BME280;40174;52.364;6.452;2023-05-08T00:52:32;101882.78;;;13.20;nan
54262;BME280;40174;52.364;6.452;2023-05-08T00:55:00;101883.50;;;13.22;nan
54262;BME280;40174;52.364;6.452;2023-05-08T00:57:28;101886.63;;;13.16;nan
54262;BME280;40174;52.364;6.452;2023-05-08T00:59:55;101879.88;;;13.12;nan
54262;BME280;40174;52.364;6.452;2023-05-08T01:02:22;101881.19;;;13.17;nan
54262;BME280;40174;52.364;6.452;2023-05-08T01:04:51;101873.34;;;13.16;nan
54262;BME280;40174;52.364;6.452;2023-05-08T01:07:20;101874.75;;;13.08;nan
54262;BME280;40174;52.364;6.452;2023-05-08T01:09:47;101869.56;;;13.07;nan
54262;BME280;40174;52.364;6.452;2023-05-08T01:12:18;101871.50;;;13.05;nan
54262;BME280;40174;52.364;6.452;2023-05-08T01:14:55;101879.34;;;13.06;nan
54262;BME280;40174;52.364;6.452;2023-05-08T01:17:28;101870.88;;;13.01;nan
54262;BME280;40174;52.364;6.452;2023-05-08T01:20:08;101866.84;;;12.96;nan
54262;BME280;40174;52.364;6.452;2023-05-08T01:23:05;101874.13;;;12.94;nan
54262;BME280;40174;52.364;6.452;2023-05-08T01:25:51;101876.97;;;12.90;nan
54262;BME280;40174;52.364;6.452;2023-05-08T01:28:53;101880.94;;;12.85;nan
54262;BME280;40174;52.364;6.452;2023-05-08T01:31:33;101883.59;;;12.85;nan
54262;BME280;40174;52.364;6.452;2023-05-08T01:34:09;101884.78;;;12.81;nan
54262;BME280;40174;52.364;6.452;2023-05-08T01:36:42;101878.56;;;12.69;nan
54262;BME280;40174;52.364;6.452;2023-05-08T01:39:16;101881.47;;;12.77;nan
54262;BME280;40174;52.364;6.452;2023-05-08T01:41:59;101880.75;;;12.75;nan
54262;BME280;40174;52.364;6.452;2023-05-08T01:44:32;101883.63;;;12.72;nan
54262;BME280;40174;52.364;6.452;2023-05-08T01:47:04;101884.06;;;12.66;nan
54262;BME280;40174;52.364;6.452;2023-05-08T01:49:37;101878.03;;;12.64;nan
54262;BME280;40174;52.364;6.452;2023-05-08T01:52:09;101879.84;;;12.63;nan
54262;BME280;40174;52.364;6.452;2023-05-08T01:54:43;101881.16;;;12.58;nan
54262;BME280;40174;52.364;6.452;2023-05-08T01:57:13;101887.50;;;12.55;nan
54262;BME280;40174;52.364;6.452;2023-05-08T01:59:43;101892.59;;;12.58;nan
54262;BME280;40174;52.364;6.452;2023-05-08T02:02:11;101888.56;;;12.53;nan
54262;BME280;40174;52.364;6.452;2023-05-08T02:04:42;101891.22;;;12.53;nan
54262;BME280;40174;52.364;6.452;2023-05-08T02:07:09;101898.75;;;12.46;nan
54262;BME280;40174;52.364;6.452;2023-05-08T02:09:38;101884.25;;;12.39;nan
54262;BME280;40174;52.364;6.452;2023-05-08T02:12:07;101900.25;;;12.37;nan
54262;BME280;40174;52.364;6.452;2023-05-08T02:14:35;101893.09;;;12.26;nan
54262;BME280;40174;52.364;6.452;2023-05-08T02:17:03;101893.81;;;12.28;nan
54262;BME280;40174;52.364;6.452;2023-05-08T02:19:32;101889.38;;;12.29;nan
54262;BME280;40174;52.364;6.452;2023-05-08T02:22:02;101892.69;;;12.20;nan
54262;BME280;40174;52.364;6.452;2023-05-08T02:24:31;101890.22;;;12.17;nan
54262;BME280;40174;52.364;6.452;2023-05-08T02:26:59;101889.28;;;12.18;nan
54262;BME280;40174;52.364;6.452;2023-05-08T02:29:27;101888.97;;;12.10;nan
54262;BME280;40174;52.364;6.452;2023-05-08T02:31:56;101886.22;;;12.11;nan
54262;BME280;40174;52.364;6.452;2023-05-08T02:34:23;101898.59;;;12.11;nan
54262;BME280;40174;52.364;6.452;2023-05-08T02:36:51;101891.09;;;12.04;nan
54262;BME280;40174;52.364;6.452;2023-05-08T02:39:24;101890.84;;;11.95;nan
54262;BME280;40174;52.364;6.452;2023-05-08T02:41:51;101891.72;;;11.95;nan
54262;BME280;40174;52.364;6.452;2023-05-08T02:44:18;101890.25;;;11.91;nan
54262;BME280;40174;52.364;6.452;2023-05-08T02:46:48;101891.19;;;11.90;nan
54262;BME280;40174;52.364;6.452;2023-05-08T02:49:26;101895.19;;;11.83;nan
54262;BME280;40174;52.364;6.452;2023-05-08T02:51:55;101902.50;;;11.79;nan
54262;BME280;40174;52.364;6.452;2023-05-08T02:54:32;101894.13;;;11.73;nan
54262;BME280;40174;52.364;6.452;2023-05-08T02:57:07;101898.03;;;11.67;nan
54262;BME280;40174;52.364;6.452;2023-05-08T02:59:38;101889.44;;;11.63;nan
54262;BME280;40174;52.364;6.452;2023-05-08T03:02:10;101896.84;;;11.58;nan
54262;BME280;40174;52.364;6.452;2023-05-08T03:04:42;101899.31;;;11.61;nan
54262;BME280;40174;52.364;6.452;2023-05-08T03:07:11;101889.22;;;11.54;nan
54262;BME280;40174;52.364;6.452;2023-05-08T03:09:43;101896.81;;;11.45;nan
54262;BME280;40174;52.364;6.452;2023-05-08T03:12:13;101889.31;;;11.39;nan
54262;BME280;40174;52.364;6.452;2023-05-08T03:14:44;101898.31;;;11.37;nan
54262;BME280;40174;52.364;6.452;2023-05-08T03:17:14;101885.91;;;11.37;nan
54262;BME280;40174;52.364;6.452;2023-05-08T03:19:46;101886.31;;;11.31;nan
54262;BME280;40174;52.364;6.452;2023-05-08T03:22:18;101889.50;;;11.23;nan
54262;BME280;40174;52.364;6.452;2023-05-08T03:24:48;101893.31;;;11.32;nan
54262;BME280;40174;52.364;6.452;2023-05-08T03:27:16;101896.81;;;11.33;nan
54262;BME280;40174;52.364;6.452;2023-05-08T03:29:45;101899.00;;;11.26;nan
54262;BME280;40174;52.364;6.452;2023-05-08T03:32:13;101897.59;;;11.20;nan
54262;BME280;40174;52.364;6.452;2023-05-08T03:34:40;101903.47;;;11.26;nan
54262;BME280;40174;52.364;6.452;2023-05-08T03:37:07;101897.59;;;11.20;nan
54262;BME280;40174;52.364;6.452;2023-05-08T03:39:34;101900.38;;;11.19;nan
54262;BME280;40174;52.364;6.452;2023-05-08T03:42:02;101896.81;;;11.33;nan
54262;BME280;40174;52.364;6.452;2023-05-08T03:44:29;101887.81;;;11.35;nan
54262;BME280;40174;52.364;6.452;2023-05-08T03:46:57;101891.59;;;11.31;nan
54262;BME280;40174;52.364;6.452;2023-05-08T03:49:24;101889.50;;;11.36;nan
54262;BME280;40174;52.364;6.452;2023-05-08T03:51:52;101885.06;;;11.37;nan
54262;BME280;40174;52.364;6.452;2023-05-08T03:54:20;101883.91;;;11.41;nan
54262;BME280;40174;52.364;6.452;2023-05-08T03:56:51;101875.03;;;11.42;nan
54262;BME280;40174;52.364;6.452;2023-05-08T04:02:11;101877.66;;;11.42;nan
54262;BME280;40174;52.364;6.452;2023-05-08T04:04:44;101881.38;;;11.39;nan
54262;BME280;40174;52.364;6.452;2023-05-08T04:07:18;101879.16;;;11.46;nan
54262;BME280;40174;52.364;6.452;2023-05-08T04:09:55;101883.72;;;11.44;nan
54262;BME280;40174;52.364;6.452;2023-05-08T04:12:32;101888.88;;;11.45;nan
54262;BME280;40174;52.364;6.452;2023-05-08T04:15:06;101892.41;;;11.46;nan
54262;BME280;40174;52.364;6.452;2023-05-08T04:17:42;101891.22;;;11.37;nan
54262;BME280;40174;52.364;6.452;2023-05-08T04:20:14;101894.28;;;11.44;nan
54262;BME280;40174;52.364;6.452;2023-05-08T04:22:44;101891.25;;;11.50;nan
54262;BME280;40174;52.364;6.452;2023-05-08T04:25:14;101888.78;;;11.47;nan
54262;BME280;40174;52.364;6.452;2023-05-08T04:27:43;101888.88;;;11.45;nan
54262;BME280;40174;52.364;6.452;2023-05-08T04:30:13;101886.44;;;11.42;nan
54262;BME280;40174;52.364;6.452;2023-05-08T04:32:41;101882.34;;;11.51;nan
54262;BME280;40174;52.364;6.452;2023-05-08T04:35:09;101884.56;;;11.57;nan
54262;BME280;40174;52.364;6.452;2023-05-08T04:37:38;101881.19;;;11.55;nan
54262;BME280;40174;52.364;6.452;2023-05-08T04:40:06;101889.88;;;11.57;nan
54262;BME280;40174;52.364;6.452;2023-05-08T04:42:33;101885.72;;;11.53;nan
54262;BME280;40174;52.364;6.452;2023-05-08T04:45:02;101883.41;;;11.61;nan
54262;BME280;40174;52.364;6.452;2023-05-08T04:47:30;101880.97;;;11.58;nan
54262;BME280;40174;52.364;6.452;2023-05-08T04:49:57;101879.81;;;11.62;nan
54262;BME280;40174;52.364;6.452;2023-05-08T04:52:24;101890.94;;;11.68;nan
54262;BME280;40174;52.364;6.452;2023-05-08T04:54:51;101889.34;;;11.65;nan
54262;BME280;40174;52.364;6.452;2023-05-08T04:57:17;101884.88;;;11.65;nan
54262;BME280;40174;52.364;6.452;2023-05-08T04:59:44;101892.81;;;11.65;nan
54262;BME280;40174;52.364;6.452;2023-05-08T05:02:11;101887.22;;;11.70;nan
54262;BME280;40174;52.364;6.452;2023-05-08T05:04:39;101895.59;;;11.77;nan
54262;BME280;40174;52.364;6.452;2023-05-08T05:07:06;101901.00;;;11.75;nan
54262;BME280;40174;52.364;6.452;2023-05-08T05:09:32;101903.84;;;11.72;nan
54262;BME280;40174;52.364;6.452;2023-05-08T05:12:01;101908.53;;;11.81;nan
54262;BME280;40174;52.364;6.452;2023-05-08T05:14:29;101901.22;;;11.85;nan
54262;BME280;40174;52.364;6.452;2023-05-08T05:16:55;101905.50;;;11.88;nan
54262;BME280;40174;52.364;6.452;2023-05-08T05:19:22;101909.91;;;11.87;nan
54262;BME280;40174;52.364;6.452;2023-05-08T05:21:50;101910.00;;;11.85;nan
54262;BME280;40174;52.364;6.452;2023-05-08T05:24:17;101913.44;;;12.00;nan
54262;BME280;40174;52.364;6.452;2023-05-08T05:26:44;101918.53;;;12.03;nan
54262;BME280;40174;52.364;6.452;2023-05-08T05:29:10;101920.66;;;11.98;nan
54262;BME280;40174;52.364;6.452;2023-05-08T05:31:38;101921.31;;;12.02;nan
54262;BME280;40174;52.364;6.452;2023-05-08T05:34:04;101927.34;;;12.04;nan
54262;BME280;40174;52.364;6.452;2023-05-08T05:36:31;101923.81;;;12.03;nan
54262;BME280;40174;52.364;6.452;2023-05-08T05:38:59;101926.16;;;12.08;nan
54262;BME280;40174;52.364;6.452;2023-05-08T05:41:28;101931.47;;;12.21;nan
54262;BME280;40174;52.364;6.452;2023-05-08T05:43:55;101930.91;;;12.28;nan
54262;BME280;40174;52.364;6.452;2023-05-08T05:46:21;101934.44;;;12.29;nan
54262;BME280;40174;52.364;6.452;2023-05-08T05:48:52;101931.38;;;12.22;nan
54262;BME280;40174;52.364;6.452;2023-05-08T05:51:19;101930.63;;;12.20;nan
54262;BME280;40174;52.364;6.452;2023-05-08T05:53:46;101934.41;;;12.42;nan
54262;BME280;40174;52.364;6.452;2023-05-08T05:56:14;101938.44;;;12.47;nan
54262;BME280;40174;52.364;6.452;2023-05-08T05:58:40;101934.72;;;12.50;nan
54262;BME280;40174;52.364;6.452;2023-05-08T06:01:09;101940.84;;;12.51;nan
54262;BME280;40174;52.364;6.452;2023-05-08T06:03:36;101933.78;;;12.51;nan
54262;BME280;40174;52.364;6.452;2023-05-08T06:06:03;101935.75;;;12.60;nan
54262;BME280;40174;52.364;6.452;2023-05-08T06:08:30;101937.31;;;12.76;nan
54262;BME280;40174;52.364;6.452;2023-05-08T06:10:56;101936.84;;;12.82;nan
54262;BME280;40174;52.364;6.452;2023-05-08T06:13:24;101945.38;;;12.74;nan
54262;BME280;40174;52.364;6.452;2023-05-08T06:15:53;101941.75;;;12.75;nan
54262;BME280;40174;52.364;6.452;2023-05-08T06:18:22;101940.81;;;12.76;nan
54262;BME280;40174;52.364;6.452;2023-05-08T06:20:54;101935.38;;;12.78;nan
54262;BME280;40174;52.364;6.452;2023-05-08T06:23:21;101940.47;;;12.81;nan
54262;BME280;40174;52.364;6.452;2023-05-08T06:25:48;101944.31;;;12.77;nan
54262;BME280;40174;52.364;6.452;2023-05-08T06:28:14;101947.06;;;12.75;nan
54262;BME280;40174;52.364;6.452;2023-05-08T06:30:42;101942.72;;;12.87;nan
54262;BME280;40174;52.364;6.452;2023-05-08T06:33:09;101939.72;;;12.92;nan
54262;BME280;40174;52.364;6.452;2023-05-08T06:35:36;101936.72;;;12.96;nan
54262;BME280;40174;52.364;6.452;2023-05-08T06:38:02;101944.78;;;12.95;nan
54262;BME280;40174;52.364;6.452;2023-05-08T06:40:29;101944.34;;;13.01;nan
54262;BME280;40174;52.364;6.452;2023-05-08T06:42:55;101937.38;;;13.11;nan
54262;BME280;40174;52.364;6.452;2023-05-08T06:45:22;101941.13;;;13.08;nan
54262;BME280;40174;52.364;6.452;2023-05-08T06:47:50;101946.94;;;13.14;nan
54262;BME280;40174;52.364;6.452;2023-05-08T06:50:16;101945.00;;;13.16;nan
54262;BME280;40174;52.364;6.452;2023-05-08T06:52:43;101943.09;;;13.18;nan
54262;BME280;40174;52.364;6.452;2023-05-08T06:55:10;101951.16;;;13.29;nan
54262;BME280;40174;52.364;6.452;2023-05-08T06:57:36;101948.88;;;13.36;nan
54262;BME280;40174;52.364;6.452;2023-05-08T07:00:03;101948.44;;;13.42;nan
54262;BME280;40174;52.364;6.452;2023-05-08T07:02:30;101958.66;;;13.35;nan
54262;BME280;40174;52.364;6.452;2023-05-08T07:04:58;101951.19;;;13.40;nan
54262;BME280;40174;52.364;6.452;2023-05-08T07:07:25;101962.78;;;13.39;nan
54262;BME280;40174;52.364;6.452;2023-05-08T07:09:51;101950.97;;;13.43;nan
54262;BME280;40174;52.364;6.452;2023-05-08T07:12:18;101952.59;;;13.57;nan
54262;BME280;40174;52.364;6.452;2023-05-08T07:14:45;101952.50;;;13.59;nan
54262;BME280;40174;52.364;6.452;2023-05-08T07:17:11;101963.13;;;13.59;nan
54262;BME280;40174;52.364;6.452;2023-05-08T07:19:38;101958.66;;;13.59;nan
54262;BME280;40174;52.364;6.452;2023-05-08T07:22:06;101951.44;;;13.72;nan
54262;BME280;40174;52.364;6.452;2023-05-08T07:24:32;101948.44;;;13.77;nan
54262;BME280;40174;52.364;6.452;2023-05-08T07:26:59;101946.00;;;13.74;nan
54262;BME280;40174;52.364;6.452;2023-05-08T07:29:26;101951.19;;;13.76;nan
54262;BME280;40174;52.364;6.452;2023-05-08T07:31:53;101951.94;;;13.78;nan
54262;BME280;40174;52.364;6.452;2023-05-08T07:34:19;101955.91;;;13.83;nan
54262;BME280;40174;52.364;6.452;2023-05-08T07:36:46;101947.28;;;13.92;nan
54262;BME280;40174;52.364;6.452;2023-05-08T07:39:14;101947.41;;;14.02;nan
54262;BME280;40174;52.364;6.452;2023-05-08T07:41:41;101949.22;;;14.13;nan
54262;BME280;40174;52.364;6.452;2023-05-08T07:44:07;101946.78;;;14.10;nan
54262;BME280;40174;52.364;6.452;2023-05-08T07:46:34;101944.88;;;14.12;nan
54262;BME280;40174;52.364;6.452;2023-05-08T07:49:01;101937.88;;;14.11;nan
54262;BME280;40174;52.364;6.452;2023-05-08T07:51:28;101945.00;;;14.22;nan
54262;BME280;40174;52.364;6.452;2023-05-08T07:53:54;101947.31;;;14.26;nan
54262;BME280;40174;52.364;6.452;2023-05-08T07:56:22;101946.44;;;14.37;nan
54262;BME280;40174;52.364;6.452;2023-05-08T07:58:49;101941.00;;;14.27;nan
54262;BME280;40174;52.364;6.452;2023-05-08T08:01:16;101943.78;;;14.37;nan
54262;BME280;40174;52.364;6.452;2023-05-08T08:03:43;101941.75;;;14.52;nan
54262;BME280;40174;52.364;6.452;2023-05-08T08:06:09;101939.34;;;14.49;nan
54262;BME280;40174;52.364;6.452;2023-05-08T08:08:36;101951.53;;;14.51;nan
54262;BME280;40174;52.364;6.452;2023-05-08T08:11:03;101949.59;;;14.53;nan
54262;BME280;40174;52.364;6.452;2023-05-08T08:13:31;101946.25;;;14.63;nan
54262;BME280;40174;52.364;6.452;2023-05-08T08:15:58;101945.78;;;14.58;nan
54262;BME280;40174;52.364;6.452;2023-05-08T08:18:24;101946.72;;;14.68;nan
54262;BME280;40174;52.364;6.452;2023-05-08T08:20:51;101945.59;;;14.82;nan
54262;BME280;40174;52.364;6.452;2023-05-08T08:23:17;101941.00;;;14.84;nan
54262;BME280;40174;52.364;6.452;2023-05-08T08:25:44;101942.06;;;14.92;nan
54262;BME280;40174;52.364;6.452;2023-05-08T08:28:11;101940.41;;;14.91;nan
54262;BME280;40174;52.364;6.452;2023-05-08T08:30:38;101945.75;;;14.80;nan
54262;BME280;40174;52.364;6.452;2023-05-08T08:33:05;101946.44;;;14.93;nan
54262;BME280;40174;52.364;6.452;2023-05-08T08:35:32;101949.06;;;15.05;nan
54262;BME280;40174;52.364;6.452;2023-05-08T08:37:58;101950.41;;;14.99;nan
54262;BME280;40174;52.364;6.452;2023-05-08T08:40:25;101951.50;;;14.96;nan
54262;BME280;40174;52.364;6.452;2023-05-08T08:42:51;101954.25;;;15.06;nan
54262;BME280;40174;52.364;6.452;2023-05-08T08:45:18;101953.31;;;15.07;nan
54262;BME280;40174;52.364;6.452;2023-05-08T08:47:47;101947.09;;;15.18;nan
54262;BME280;40174;52.364;6.452;2023-05-08T08:50:14;101957.44;;;15.32;nan
54262;BME280;40174;52.364;6.452;2023-05-08T08:52:46;101948.63;;;15.32;nan
54262;BME280;40174;52.364;6.452;2023-05-08T08:55:15;101945.34;;;15.28;nan
54262;BME280;40174;52.364;6.452;2023-05-08T08:57:48;101943.38;;;15.42;nan
54262;BME280;40174;52.364;6.452;2023-05-08T09:00:19;101947.88;;;15.62;nan
54262;BME280;40174;52.364;6.452;2023-05-08T09:02:48;101952.25;;;15.63;nan
54262;BME280;40174;52.364;6.452;2023-05-08T09:05:15;101945.19;;;15.62;nan
54262;BME280;40174;52.364;6.452;2023-05-08T09:07:42;101945.91;;;15.64;nan
54262;BME280;40174;52.364;6.452;2023-05-08T09:10:10;101938.63;;;15.77;nan
54262;BME280;40174;52.364;6.452;2023-05-08T09:12:39;101934.41;;;15.75;nan
54262;BME280;40174;52.364;6.452;2023-05-08T09:15:07;101939.94;;;15.83;nan
54262;BME280;40174;52.364;6.452;2023-05-08T09:17:33;101932.69;;;15.95;nan
54262;BME280;40174;52.364;6.452;2023-05-08T09:20:02;101931.19;;;16.02;nan
54262;BME280;40174;52.364;6.452;2023-05-08T09:22:29;101931.06;;;16.04;nan
54262;BME280;40174;52.364;6.452;2023-05-08T09:24:56;101929.44;;;16.12;nan
54262;BME280;40174;52.364;6.452;2023-05-08T09:27:25;101937.19;;;16.25;nan
54262;BME280;40174;52.364;6.452;2023-05-08T09:30:00;101931.75;;;16.36;nan
54262;BME280;40174;52.364;6.452;2023-05-08T09:32:27;101933.47;;;16.37;nan
54262;BME280;40174;52.364;6.452;2023-05-08T09:34:54;101927.41;;;16.35;nan
54262;BME280;40174;52.364;6.452;2023-05-08T09:37:24;101922.25;;;16.44;nan
54262;BME280;40174;52.364;6.452;2023-05-08T09:39:51;101928.44;;;16.44;nan
54262;BME280;40174;52.364;6.452;2023-05-08T09:42:17;101919.50;;;16.65;nan
54262;BME280;40174;52.364;6.452;2023-05-08T09:44:46;101917.44;;;16.68;nan
54262;BME280;40174;52.364;6.452;2023-05-08T09:47:14;101920.97;;;16.88;nan
54262;BME280;40174;52.364;6.452;2023-05-08T09:49:56;101922.69;;;16.89;nan
54262;BME280;40174;52.364;6.452;2023-05-08T09:52:24;101932.13;;;17.13;nan
54262;BME280;40174;52.364;6.452;2023-05-08T09:54:57;101932.69;;;17.16;nan
54262;BME280;40174;52.364;6.452;2023-05-08T09:57:24;101932.81;;;17.15;nan
54262;BME280;40174;52.364;6.452;2023-05-08T09:59:59;101923.28;;;17.12;nan
54262;BME280;40174;52.364;6.452;2023-05-08T10:02:26;101924.69;;;17.16;nan
54262;BME280;40174;52.364;6.452;2023-05-08T10:04:53;101923.72;;;17.27;nan
54262;BME280;40174;52.364;6.452;2023-05-08T10:07:27;101928.34;;;17.54;nan
54262;BME280;40174;52.364;6.452;2023-05-08T10:09:58;101928.19;;;17.65;nan
54262;BME280;40174;52.364;6.452;2023-05-08T10:12:27;101926.06;;;17.59;nan
54262;BME280;40174;52.364;6.452;2023-05-08T10:14:54;101921.84;;;17.76;nan
54262;BME280;40174;52.364;6.452;2023-05-08T10:17:25;101913.94;;;17.75;nan
54262;BME280;40174;52.364;6.452;2023-05-08T10:19:56;101909.88;;;17.80;nan
54262;BME280;40174;52.364;6.452;2023-05-08T10:22:24;101911.81;;;17.98;nan
54262;BME280;40174;52.364;6.452;2023-05-08T10:24:55;101911.34;;;18.12;nan
54262;BME280;40174;52.364;6.452;2023-05-08T10:27:27;101914.56;;;18.16;nan
54262;BME280;40174;52.364;6.452;2023-05-08T10:30:00;101912.88;;;18.15;nan
54262;BME280;40174;52.364;6.452;2023-05-08T10:32:34;101916.34;;;18.25;nan
54262;BME280;40174;52.364;6.452;2023-05-08T10:35:07;101911.22;;;18.41;nan
54262;BME280;40174;52.364;6.452;2023-05-08T10:37:35;101915.19;;;18.37;nan
54262;BME280;40174;52.364;6.452;2023-05-08T10:40:05;101903.53;;;18.28;nan
54262;BME280;40174;52.364;6.452;2023-05-08T10:42:32;101900.78;;;18.48;nan
54262;BME280;40174;52.364;6.452;2023-05-08T10:45:00;101904.38;;;18.57;nan
54262;BME280;40174;52.364;6.452;2023-05-08T10:47:35;101896.28;;;18.66;nan
54262;BME280;40174;52.364;6.452;2023-05-08T10:50:17;101900.56;;;18.87;nan
54262;BME280;40174;52.364;6.452;2023-05-08T10:52:51;101899.81;;;19.13;nan
54262;BME280;40174;52.364;6.452;2023-05-08T10:55:27;101895.25;;;19.49;nan
54262;BME280;40174;52.364;6.452;2023-05-08T10:58:02;101905.94;;;19.67;nan
54262;BME280;40174;52.364;6.452;2023-05-08T11:00:31;101902.25;;;19.68;nan
54262;BME280;40174;52.364;6.452;2023-05-08T11:03:04;101896.78;;;19.51;nan
54262;BME280;40174;52.364;6.452;2023-05-08T11:05:44;101893.88;;;19.45;nan
54262;BME280;40174;52.364;6.452;2023-05-08T11:08:13;101891.59;;;19.32;nan
54262;BME280;40174;52.364;6.452;2023-05-08T11:10:42;101897.03;;;19.40;nan
54262;BME280;40174;52.364;6.452;2023-05-08T11:13:10;101892.75;;;19.29;nan
54262;BME280;40174;52.364;6.452;2023-05-08T11:15:39;101891.06;;;19.28;nan
54262;BME280;40174;52.364;6.452;2023-05-08T11:18:07;101891.75;;;19.30;nan
54262;BME280;40174;52.364;6.452;2023-05-08T11:20:39;101898.66;;;19.33;nan
54262;BME280;40174;52.364;6.452;2023-05-08T11:23:21;101888.63;;;19.35;nan
54262;BME280;40174;52.364;6.452;2023-05-08T11:25:57;101885.06;;;19.35;nan
54262;BME280;40174;52.364;6.452;2023-05-08T11:28:25;101878.66;;;19.27;nan
54262;BME280;40174;52.364;6.452;2023-05-08T11:30:52;101883.31;;;19.43;nan
54262;BME280;40174;52.364;6.452;2023-05-08T11:33:20;101888.03;;;19.49;nan
54262;BME280;40174;52.364;6.452;2023-05-08T11:35:52;101881.22;;;19.55;nan
54262;BME280;40174;52.364;6.452;2023-05-08T11:38:24;101881.75;;;19.59;nan
54262;BME280;40174;52.364;6.452;2023-05-08T11:40:56;101874.31;;;19.52;nan
54262;BME280;40174;52.364;6.452;2023-05-08T11:46:11;101881.38;;;19.53;nan
54262;BME280;40174;52.364;6.452;2023-05-08T11:48:39;101875.41;;;19.60;nan
54262;BME280;40174;52.364;6.452;2023-05-08T11:51:05;101871.81;;;19.51;nan
54262;BME280;40174;52.364;6.452;2023-05-08T11:53:33;101865.47;;;19.34;nan
54262;BME280;40174;52.364;6.452;2023-05-08T11:56:02;101865.00;;;19.39;nan
54262;BME280;40174;52.364;6.452;2023-05-08T11:58:29;101869.28;;;19.49;nan
54262;BME280;40174;52.364;6.452;2023-05-08T12:00:56;101864.75;;;19.50;nan
54262;BME280;40174;52.364;6.452;2023-05-08T12:03:23;101863.59;;;19.52;nan
54262;BME280;40174;52.364;6.452;2023-05-08T12:05:54;101865.22;;;19.45;nan
54262;BME280;40174;52.364;6.452;2023-05-08T12:08:21;101867.28;;;19.69;nan
54262;BME280;40174;52.364;6.452;2023-05-08T12:10:49;101874.25;;;19.62;nan
54262;BME280;40174;52.364;6.452;2023-05-08T12:13:19;101870.41;;;19.65;nan
54262;BME280;40174;52.364;6.452;2023-05-08T12:15:46;101869.13;;;19.69;nan
54262;BME280;40174;52.364;6.452;2023-05-08T12:18:14;101872.84;;;19.76;nan
54262;BME280;40174;52.364;6.452;2023-05-08T12:20:41;101868.53;;;19.65;nan
54262;BME280;40174;52.364;6.452;2023-05-08T12:23:08;101861.59;;;19.55;nan
54262;BME280;40174;52.364;6.452;2023-05-08T12:25:36;101868.19;;;19.60;nan
54262;BME280;40174;52.364;6.452;2023-05-08T12:28:05;101866.69;;;19.66;nan
54262;BME280;40174;52.364;6.452;2023-05-08T12:30:33;101871.63;;;19.70;nan
54262;BME280;40174;52.364;6.452;2023-05-08T12:33:00;101858.84;;;19.64;nan
54262;BME280;40174;52.364;6.452;2023-05-08T12:35:27;101856.22;;;19.72;nan
54262;BME280;40174;52.364;6.452;2023-05-08T12:37:59;101861.78;;;19.79;nan
54262;BME280;40174;52.364;6.452;2023-05-08T12:40:27;101857.38;;;19.70;nan
54262;BME280;40174;52.364;6.452;2023-05-08T12:42:56;101863.50;;;19.80;nan
54262;BME280;40174;52.364;6.452;2023-05-08T12:45:24;101862.56;;;19.98;nan
54262;BME280;40174;52.364;6.452;2023-05-08T12:47:59;101859.38;;;19.94;nan
54262;BME280;40174;52.364;6.452;2023-05-08T12:50:26;101866.78;;;20.00;nan
54262;BME280;40174;52.364;6.452;2023-05-08T12:53:00;101865.56;;;19.94;nan
54262;BME280;40174;52.364;6.452;2023-05-08T12:55:28;101861.03;;;19.95;nan
54262;BME280;40174;52.364;6.452;2023-05-08T12:57:59;101856.63;;;19.86;nan
54262;BME280;40174;52.364;6.452;2023-05-08T13:00:33;101854.13;;;19.84;nan
54262;BME280;40174;52.364;6.452;2023-05-08T13:03:02;101846.63;;;19.96;nan
54262;BME280;40174;52.364;6.452;2023-05-08T13:05:29;101852.00;;;19.96;nan
54262;BME280;40174;52.364;6.452;2023-05-08T13:07:59;101844.94;;;19.95;nan
54262;BME280;40174;52.364;6.452;2023-05-08T13:10:41;101853.66;;;19.97;nan
54262;BME280;40174;52.364;6.452;2023-05-08T13:13:08;101847.25;;;19.90;nan
54262;BME280;40174;52.364;6.452;2023-05-08T13:15:35;101844.97;;;20.03;nan
54262;BME280;40174;52.364;6.452;2023-05-08T13:18:03;101840.16;;;20.07;nan
54262;BME280;40174;52.364;6.452;2023-05-08T13:20:30;101839.88;;;20.26;nan
54262;BME280;40174;52.364;6.452;2023-05-08T13:22:57;101836.88;;;20.38;nan
54262;BME280;40174;52.364;6.452;2023-05-08T13:25:24;101837.59;;;20.48;nan